Time;durP1;ratioP1;P1;durP2;ratioP2;P2;SDS_P1;SDS_P2;PMS_P1;PMS_P2;Temp;Humidity;BMP_temperature;BMP_pressure;BME280_temperature;BME280_humidity;BME280_pressure;Samples;Min_cycle;Max_cycle;Signal;HPM_P1;HPM_P2
2023/08/19 00:00:44;;;;;;;4.70;3.50;;;26.70;99.90;;;;;;4961585;28;20602;-77
2023/08/19 00:03:10;;;;;;;4.70;3.40;;;26.70;99.90;;;;;;4973894;28;20689;-77
2023/08/19 00:05:36;;;;;;;5.10;3.40;;;26.70;99.90;;;;;;4974065;28;20184;-77
2023/08/19 00:08:03;;;;;;;3.90;3.50;;;26.70;99.90;;;;;;4973733;28;20675;-77
2023/08/19 00:10:28;;;;;;;3.90;3.03;;;26.70;99.90;;;;;;4973718;28;20693;-77
2023/08/19 00:12:54;;;;;;;6.23;3.07;;;26.70;99.90;;;;;;4983100;28;20711;-77
2023/08/19 00:15:20;;;;;;;2.93;2.17;;;26.70;99.90;;;;;;4973511;28;20967;-77
2023/08/19 00:17:45;;;;;;;6.03;3.50;;;26.60;99.90;;;;;;4973202;28;20685;-77
2023/08/19 00:20:11;;;;;;;6.17;2.80;;;26.60;99.90;;;;;;4971913;28;20275;-77
2023/08/19 00:22:37;;;;;;;3.90;3.27;;;26.60;99.90;;;;;;4987436;28;20182;-77
2023/08/19 00:25:04;;;;;;;4.10;3.70;;;26.50;99.90;;;;;;4947637;28;20579;-77
2023/08/19 00:27:30;;;;;;;3.90;2.50;;;26.50;99.90;;;;;;4971488;28;20634;-77
2023/08/19 00:29:56;;;;;;;3.63;2.83;;;26.50;99.90;;;;;;4972702;28;20629;-77
2023/08/19 00:32:21;;;;;;;5.83;3.20;;;26.40;99.90;;;;;;4971710;28;21300;-77
2023/08/19 00:34:47;;;;;;;3.43;2.57;;;26.40;99.90;;;;;;4980655;28;20186;-77
2023/08/19 00:37:13;;;;;;;4.73;2.83;;;26.30;99.90;;;;;;4971661;28;20598;-77
2023/08/19 00:39:39;;;;;;;3.80;3.10;;;26.30;99.90;;;;;;4979460;28;20176;-77
2023/08/19 00:42:06;;;;;;;8.90;3.10;;;26.30;99.90;;;;;;4972558;28;20172;-77
2023/08/19 00:44:34;;;;;;;5.20;2.33;;;26.30;99.90;;;;;;4972590;28;20195;-77
2023/08/19 00:47:03;;;;;;;9.90;3.87;;;26.20;99.90;;;;;;4979351;28;20631;-77
2023/08/19 00:49:30;;;;;;;5.07;2.93;;;26.20;99.90;;;;;;4973497;28;20614;-77
2023/08/19 00:51:57;;;;;;;7.37;3.23;;;26.20;99.90;;;;;;4987324;28;20586;-77
2023/08/19 00:54:23;;;;;;;4.70;3.13;;;26.10;99.90;;;;;;4971158;28;20681;-77
2023/08/19 00:56:49;;;;;;;5.43;3.27;;;26.10;99.90;;;;;;4992829;23;20620;-75
2023/08/19 00:59:15;;;;;;;5.77;2.97;;;26.10;99.90;;;;;;4986168;28;20598;-77
2023/08/19 01:01:41;;;;;;;3.70;2.80;;;26.10;99.90;;;;;;4978742;28;20183;-77
2023/08/19 01:04:07;;;;;;;4.67;2.87;;;26.00;99.90;;;;;;4972483;28;20580;-78
2023/08/19 01:07:10;;;;;;;12.17;3.20;;;26.00;99.90;;;;;;4984463;28;20561;-77
2023/08/19 01:09:55;;;;;;;3.30;2.70;;;26.00;99.90;;;;;;4987070;28;21038;-77
2023/08/19 01:12:32;;;;;;;4.53;3.03;;;26.00;99.90;;;;;;5000457;28;20589;-77
2023/08/19 01:15:10;;;;;;;4.67;2.73;;;25.90;99.90;;;;;;4991002;28;20598;-78
2023/08/19 01:17:37;;;;;;;3.80;3.20;;;25.90;99.90;;;;;;4992325;28;20721;-77
2023/08/19 01:20:03;;;;;;;4.03;2.77;;;25.90;99.90;;;;;;4983901;28;20601;-78
2023/08/19 01:22:44;;;;;;;5.60;3.20;;;25.90;99.90;;;;;;4996060;28;20626;-78
2023/08/19 01:25:11;;;;;;;5.30;3.33;;;25.80;99.90;;;;;;4978464;28;21170;-77
2023/08/19 01:27:36;;;;;;;5.13;2.50;;;25.80;99.90;;;;;;4989957;28;20638;-77
2023/08/19 01:30:03;;;;;;;5.30;3.10;;;25.80;99.90;;;;;;4973646;28;20614;-77
2023/08/19 01:32:28;;;;;;;4.37;3.63;;;25.80;99.90;;;;;;4998325;28;20175;-77
2023/08/19 01:34:55;;;;;;;6.33;2.57;;;25.80;99.90;;;;;;4989943;28;20588;-77
2023/08/19 01:37:43;;;;;;;4.20;2.60;;;25.80;99.90;;;;;;4988432;28;20567;-77
2023/08/19 01:40:13;;;;;;;4.40;2.57;;;25.70;99.90;;;;;;4947248;28;20659;-78
2023/08/19 01:42:39;;;;;;;7.43;3.20;;;25.70;99.90;;;;;;5010222;28;20901;-78
2023/08/19 01:45:07;;;;;;;3.40;2.73;;;25.70;99.90;;;;;;5009919;28;20586;-77
2023/08/19 01:47:38;;;;;;;5.93;3.63;;;25.70;99.90;;;;;;4993913;28;20622;-77
2023/08/19 01:50:05;;;;;;;3.60;3.03;;;25.70;99.90;;;;;;4962678;28;20690;-77
2023/08/19 01:52:31;;;;;;;5.73;2.50;;;25.70;99.90;;;;;;5004422;28;20717;-78
2023/08/19 01:54:57;;;;;;;3.43;3.07;;;25.70;99.90;;;;;;4993716;28;20697;-78
2023/08/19 01:57:26;;;;;;;7.60;2.77;;;25.60;99.90;;;;;;4993735;28;20729;-77
2023/08/19 01:59:52;;;;;;;5.13;2.67;;;25.60;99.90;;;;;;5003780;28;20183;-77
2023/08/19 02:02:18;;;;;;;6.83;3.17;;;25.60;99.90;;;;;;5009738;28;21370;-78
2023/08/19 02:04:43;;;;;;;3.63;2.60;;;25.60;99.90;;;;;;5008885;28;20711;-77
2023/08/19 02:07:11;;;;;;;4.10;2.80;;;25.50;99.90;;;;;;4993157;28;20661;-77
2023/08/19 02:09:38;;;;;;;3.20;2.47;;;25.60;99.90;;;;;;4972359;28;20593;-78
2023/08/19 02:12:05;;;;;;;7.27;3.00;;;25.60;99.90;;;;;;4993190;28;20233;-77
2023/08/19 02:14:31;;;;;;;7.33;3.40;;;25.60;99.90;;;;;;4994724;28;21248;-77
2023/08/19 02:16:57;;;;;;;6.50;2.60;;;25.60;99.90;;;;;;5003211;28;20723;-77
2023/08/19 02:19:24;;;;;;;3.90;2.63;;;25.50;99.90;;;;;;4992741;28;20179;-77
2023/08/19 02:21:50;;;;;;;4.20;2.87;;;25.60;99.90;;;;;;4976852;28;20689;-78
2023/08/19 02:24:16;;;;;;;6.90;2.40;;;25.60;99.90;;;;;;4993192;28;20207;-77
2023/08/19 02:26:42;;;;;;;3.20;2.23;;;25.60;99.90;;;;;;5010171;28;20590;-77
2023/08/19 02:29:07;;;;;;;3.50;2.37;;;25.50;99.90;;;;;;4992923;28;20190;-77
2023/08/19 02:31:36;;;;;;;6.90;2.50;;;25.60;99.90;;;;;;4992580;28;20179;-77
2023/08/19 02:34:03;;;;;;;3.77;2.70;;;25.50;99.90;;;;;;4993057;28;20953;-77
2023/08/19 02:36:28;;;;;;;4.00;2.90;;;25.50;99.90;;;;;;4990012;28;20641;-77
2023/08/19 02:38:54;;;;;;;5.67;3.20;;;25.50;99.90;;;;;;4990293;28;21033;-77
2023/08/19 02:41:20;;;;;;;7.87;2.90;;;25.50;99.90;;;;;;4992855;28;20206;-77
2023/08/19 02:43:45;;;;;;;3.80;2.17;;;25.50;99.90;;;;;;4976817;28;20214;-78
2023/08/19 02:46:11;;;;;;;5.90;2.60;;;25.50;99.90;;;;;;5000957;28;20665;-77
2023/08/19 02:48:37;;;;;;;3.20;2.20;;;25.50;99.90;;;;;;4991217;28;20195;-77
2023/08/19 02:51:02;;;;;;;2.63;2.07;;;25.50;99.90;;;;;;4993796;28;20222;-77
2023/08/19 02:53:28;;;;;;;4.73;2.83;;;25.50;99.90;;;;;;5009154;28;20179;-77
2023/08/19 02:55:55;;;;;;;4.03;2.10;;;25.50;99.90;;;;;;4993764;28;20950;-77
2023/08/19 02:58:21;;;;;;;4.50;2.77;;;25.50;99.90;;;;;;5008736;28;20210;-77
2023/08/19 03:00:50;;;;;;;3.27;2.23;;;25.50;99.90;;;;;;4964159;28;20590;-77
2023/08/19 03:03:16;;;;;;;9.50;2.97;;;25.50;99.90;;;;;;4992678;28;20668;-78
2023/08/19 03:05:42;;;;;;;2.77;2.13;;;25.50;99.90;;;;;;4985549;28;20610;-77
2023/08/19 03:08:09;;;;;;;6.83;2.60;;;25.50;99.90;;;;;;4990249;28;20615;-78
2023/08/19 03:10:36;;;;;;;4.00;2.50;;;25.40;99.90;;;;;;5008585;28;20182;-77
2023/08/19 03:13:02;;;;;;;3.73;1.83;;;25.40;99.90;;;;;;5008574;28;21159;-78
2023/08/19 03:15:29;;;;;;;4.17;2.47;;;25.40;99.90;;;;;;5000683;28;20635;-77
2023/08/19 03:17:54;;;;;;;2.77;2.10;;;25.40;99.90;;;;;;4991733;28;20629;-78
2023/08/19 03:20:20;;;;;;;4.83;2.30;;;25.40;99.90;;;;;;4993158;28;20586;-77
2023/08/19 03:22:46;;;;;;;5.80;2.50;;;25.40;99.90;;;;;;4993236;28;20195;-77
2023/08/19 03:25:12;;;;;;;3.80;2.37;;;25.40;99.90;;;;;;4975517;28;20186;-77
2023/08/19 03:27:38;;;;;;;5.50;2.57;;;25.40;99.90;;;;;;4993163;28;20602;-77
2023/08/19 03:30:04;;;;;;;6.13;2.37;;;25.40;99.90;;;;;;4975383;28;20206;-77
2023/08/19 03:32:31;;;;;;;4.40;2.40;;;25.40;99.90;;;;;;4992040;28;20625;-77
2023/08/19 03:34:57;;;;;;;2.27;1.80;;;25.40;99.90;;;;;;5008035;28;20618;-77
2023/08/19 03:37:24;;;;;;;2.53;2.00;;;25.50;99.90;;;;;;4991892;28;20750;-77
2023/08/19 03:39:50;;;;;;;2.57;2.10;;;25.50;99.90;;;;;;4985693;28;20586;-78
2023/08/19 03:42:17;;;;;;;4.57;2.00;;;25.40;99.90;;;;;;4991645;28;20175;-77
2023/08/19 03:44:43;;;;;;;4.23;1.80;;;25.50;99.90;;;;;;4991693;28;20641;-77
2023/08/19 03:47:13;;;;;;;3.10;1.87;;;25.50;99.90;;;;;;4975663;28;20702;-77
2023/08/19 03:49:40;;;;;;;3.70;1.93;;;25.40;99.90;;;;;;4999875;28;20179;-77
2023/08/19 03:52:07;;;;;;;2.93;2.10;;;25.50;99.90;;;;;;4991462;28;20649;-77
2023/08/19 03:54:33;;;;;;;2.53;2.30;;;25.50;99.90;;;;;;4991400;28;20213;-78
2023/08/19 03:56:59;;;;;;;3.10;1.97;;;25.40;99.90;;;;;;4988806;28;20713;-77
2023/08/19 03:59:24;;;;;;;3.07;2.17;;;25.40;99.90;;;;;;4991103;28;20201;-78
2023/08/19 04:01:51;;;;;;;4.00;2.30;;;25.40;99.90;;;;;;4986982;28;20194;-77
2023/08/19 04:04:17;;;;;;;3.07;2.63;;;25.40;99.90;;;;;;4991286;28;20641;-77
2023/08/19 04:06:43;;;;;;;2.80;2.10;;;25.40;99.90;;;;;;4991365;28;20587;-77
2023/08/19 04:09:09;;;;;;;3.93;2.87;;;25.40;99.90;;;;;;4992670;28;20182;-77
2023/08/19 04:11:37;;;;;;;4.80;2.40;;;25.30;99.90;;;;;;4975566;28;20194;-78
2023/08/19 04:14:02;;;;;;;5.30;2.30;;;25.30;99.90;;;;;;4991236;28;20598;-77
2023/08/19 04:16:28;;;;;;;5.10;2.80;;;25.30;99.90;;;;;;4982586;28;20664;-77
2023/08/19 04:18:54;;;;;;;5.20;2.40;;;25.30;99.90;;;;;;4990785;28;20717;-77
2023/08/19 04:21:20;;;;;;;3.93;2.03;;;25.30;99.90;;;;;;4999338;28;20179;-77
2023/08/19 04:23:46;;;;;;;3.17;1.97;;;25.30;99.90;;;;;;4991216;28;20682;-77
2023/08/19 04:26:11;;;;;;;4.13;2.00;;;25.30;99.90;;;;;;4990946;28;20614;-77
2023/08/19 04:28:37;;;;;;;3.43;2.53;;;25.30;99.90;;;;;;4999332;28;20684;-76
2023/08/19 04:31:06;;;;;;;4.23;2.13;;;25.30;99.90;;;;;;5011147;28;20169;-76
2023/08/19 04:33:41;;;;;;;4.63;1.70;;;25.30;99.90;;;;;;5012724;28;20566;-78
2023/08/19 04:36:07;;;;;;;6.60;2.00;;;25.20;99.90;;;;;;4991918;28;21222;-78
2023/08/19 04:38:33;;;;;;;4.50;2.10;;;25.20;99.90;;;;;;4991827;28;20768;-77
2023/08/19 04:41:08;;;;;;;2.57;2.07;;;25.20;99.90;;;;;;4989615;28;20595;-78
2023/08/19 04:43:41;;;;;;;3.67;2.23;;;25.20;99.90;;;;;;4992097;28;20630;-78
2023/08/19 04:46:09;;;;;;;2.53;2.20;;;25.20;99.90;;;;;;4991833;28;20633;-78
2023/08/19 04:48:35;;;;;;;2.83;2.20;;;25.10;99.90;;;;;;5008294;28;20705;-78
2023/08/19 04:51:00;;;;;;;4.47;2.13;;;25.10;99.90;;;;;;4988170;28;20700;-78
2023/08/19 04:53:28;;;;;;;4.27;2.17;;;25.10;99.90;;;;;;4999326;28;20594;-78
2023/08/19 04:56:03;;;;;;;3.87;2.83;;;25.10;99.90;;;;;;5008301;28;20598;-77
2023/08/19 04:58:31;;;;;;;3.03;2.00;;;25.10;99.90;;;;;;4952978;28;20632;-78
2023/08/19 05:00:58;;;;;;;3.53;2.13;;;25.10;99.90;;;;;;4991443;28;21206;-78
2023/08/19 05:03:24;;;;;;;4.50;2.17;;;25.10;99.90;;;;;;4990826;28;20650;-78
2023/08/19 05:05:50;;;;;;;5.40;2.60;;;25.10;99.90;;;;;;4990947;28;20649;-79
2023/08/19 05:08:19;;;;;;;6.00;2.73;;;25.10;99.90;;;;;;4990135;28;20622;-78
2023/08/19 05:10:45;;;;;;;3.60;2.50;;;25.20;99.90;;;;;;4995675;28;20593;-78
2023/08/19 05:13:10;;;;;;;5.53;2.90;;;25.20;99.90;;;;;;4992820;28;20224;-78
2023/08/19 05:15:38;;;;;;;6.23;2.20;;;25.30;99.90;;;;;;4978177;28;20669;-78
2023/08/19 05:18:05;;;;;;;3.47;2.17;;;25.30;99.90;;;;;;4970995;28;20733;-78
2023/08/19 05:20:30;;;;;;;5.00;2.33;;;25.30;99.90;;;;;;4962285;28;20701;-78
2023/08/19 05:22:56;;;;;;;4.17;2.10;;;25.40;99.90;;;;;;4990394;28;20728;-79
2023/08/19 05:25:22;;;;;;;4.87;2.87;;;25.40;99.90;;;;;;4990075;28;20182;-77
2023/08/19 05:27:47;;;;;;;3.83;2.63;;;25.50;99.90;;;;;;5004185;28;20195;-77
2023/08/19 05:30:13;;;;;;;3.43;1.87;;;25.60;99.90;;;;;;4983868;28;20219;-78
2023/08/19 05:32:39;;;;;;;2.33;1.53;;;25.70;99.90;;;;;;4990811;28;20266;-78
2023/08/19 05:35:05;;;;;;;4.27;2.40;;;25.80;99.90;;;;;;4988683;28;20179;-78
2023/08/19 05:37:31;;;;;;;3.37;2.57;;;25.80;99.90;;;;;;4996487;28;20749;-78
2023/08/19 05:39:57;;;;;;;4.30;1.90;;;25.90;99.90;;;;;;4990170;28;21176;-77
2023/08/19 05:42:22;;;;;;;6.20;2.13;;;25.90;99.90;;;;;;4990085;28;20175;-77
2023/08/19 05:44:48;;;;;;;5.43;2.67;;;25.90;99.90;;;;;;5003393;28;20599;-78
2023/08/19 05:47:15;;;;;;;3.43;2.10;;;26.10;99.90;;;;;;4974218;28;20222;-77
2023/08/19 05:49:40;;;;;;;5.33;2.37;;;26.10;99.90;;;;;;4991556;28;20266;-77
2023/08/19 05:52:06;;;;;;;4.10;1.80;;;26.10;99.90;;;;;;4990147;28;21270;-77
2023/08/19 05:54:32;;;;;;;2.67;2.20;;;26.10;99.90;;;;;;4990979;28;20194;-78
2023/08/19 05:56:58;;;;;;;3.30;1.97;;;26.10;99.90;;;;;;4987065;28;20277;-78
2023/08/19 05:59:23;;;;;;;3.77;2.07;;;26.20;99.90;;;;;;4989508;28;20594;-75
2023/08/19 06:01:49;;;;;;;4.03;2.20;;;26.20;99.90;;;;;;4989975;28;20612;-75
2023/08/19 06:04:15;;;;;;;2.50;2.00;;;26.20;99.90;;;;;;4989791;28;20209;-76
2023/08/19 06:06:42;;;;;;;2.90;1.80;;;26.20;99.90;;;;;;4990177;28;20210;-75
2023/08/19 06:09:09;;;;;;;3.90;2.37;;;26.20;99.90;;;;;;4990024;28;20601;-76
2023/08/19 06:11:46;;;;;;;3.20;2.50;;;26.30;99.90;;;;;;4987440;28;20623;-76
2023/08/19 06:14:11;;;;;;;7.47;3.20;;;26.30;99.90;;;;;;4986512;28;20685;-75
2023/08/19 06:16:37;;;;;;;3.83;2.03;;;26.40;99.90;;;;;;4983167;28;21243;-75
2023/08/19 06:19:03;;;;;;;3.70;2.37;;;26.40;99.90;;;;;;4990534;28;20184;-77
2023/08/19 06:21:28;;;;;;;4.57;2.67;;;26.40;99.90;;;;;;4964872;28;20187;-77
2023/08/19 06:23:54;;;;;;;7.07;2.03;;;26.40;99.90;;;;;;4990546;28;20567;-76
2023/08/19 06:26:20;;;;;;;4.30;1.70;;;26.50;99.90;;;;;;4994564;28;20182;-76
2023/08/19 06:28:45;;;;;;;5.53;2.17;;;26.50;99.90;;;;;;5001446;28;20199;-77
2023/08/19 06:31:11;;;;;;;3.77;2.40;;;26.60;99.90;;;;;;4972578;28;20202;-77
2023/08/19 06:33:37;;;;;;;6.17;2.20;;;26.70;99.90;;;;;;4993226;28;20206;-77
2023/08/19 06:36:04;;;;;;;2.93;2.33;;;26.70;99.90;;;;;;4993568;28;20590;-77
2023/08/19 06:38:31;;;;;;;4.63;1.87;;;26.70;99.90;;;;;;4994130;28;20645;-76
2023/08/19 06:41:00;;;;;;;2.47;1.87;;;26.80;99.90;;;;;;4988102;28;20596;-77
2023/08/19 06:43:27;;;;;;;2.37;1.80;;;26.90;99.90;;;;;;4992648;28;20721;-77
2023/08/19 06:45:56;;;;;;;3.33;1.97;;;26.90;99.90;;;;;;4993878;28;20999;-76
2023/08/19 06:48:26;;;;;;;4.77;2.20;;;26.90;99.90;;;;;;4984526;28;20638;-77
2023/08/19 06:50:53;;;;;;;6.20;1.93;;;27.00;99.90;;;;;;5004286;28;20720;-76
2023/08/19 06:53:20;;;;;;;5.30;3.00;;;27.10;99.90;;;;;;4992109;28;20960;-77
2023/08/19 06:55:58;;;;;;;2.87;2.17;;;27.10;99.90;;;;;;4990801;28;20594;-76
2023/08/19 06:58:29;;;;;;;3.23;1.77;;;27.10;99.90;;;;;;4991747;28;20744;-76
2023/08/19 07:01:00;;;;;;;3.07;1.77;;;27.20;99.90;;;;;;4992696;28;20608;-77
2023/08/19 07:03:32;;;;;;;4.40;2.27;;;27.30;99.90;;;;;;4993653;28;20637;-76
2023/08/19 07:06:02;;;;;;;2.27;1.40;;;27.30;99.90;;;;;;4993882;28;20602;-77
2023/08/19 07:08:30;;;;;;;2.47;2.07;;;27.40;99.90;;;;;;4985211;28;20996;-76
2023/08/19 07:11:00;;;;;;;5.70;1.87;;;27.50;99.90;;;;;;4993786;28;20586;-76
2023/08/19 07:13:28;;;;;;;2.33;1.80;;;27.50;99.90;;;;;;4993876;28;20629;-77
2023/08/19 07:16:00;;;;;;;3.97;1.80;;;27.60;99.90;;;;;;4990713;28;20603;-77
2023/08/19 07:18:27;;;;;;;6.57;1.93;;;27.70;99.90;;;;;;4991034;28;20639;-77
2023/08/19 07:20:56;;;;;;;3.03;2.17;;;27.80;99.90;;;;;;4991362;28;20706;-77
2023/08/19 07:23:23;;;;;;;5.27;2.03;;;27.90;99.90;;;;;;4991995;28;20635;-76
2023/08/19 07:25:50;;;;;;;3.37;1.70;;;28.00;99.90;;;;;;4990895;28;20655;-77
2023/08/19 07:28:19;;;;;;;2.60;2.00;;;28.10;99.90;;;;;;4989431;28;20719;-76
2023/08/19 07:30:45;;;;;;;4.13;2.00;;;28.20;99.90;;;;;;4984989;28;20613;-77
2023/08/19 07:33:12;;;;;;;2.77;1.70;;;28.20;99.90;;;;;;4987938;28;21045;-77
2023/08/19 07:35:41;;;;;;;2.50;1.60;;;28.30;99.90;;;;;;4983692;28;20583;-77
2023/08/19 07:38:07;;;;;;;3.67;2.00;;;28.40;99.90;;;;;;4990270;28;20202;-76
2023/08/19 07:40:32;;;;;;;4.33;2.27;;;28.40;99.90;;;;;;4992000;28;20597;-76
2023/08/19 07:42:58;;;;;;;3.00;1.70;;;28.50;99.90;;;;;;4977840;28;20207;-77
2023/08/19 07:45:29;;;;;;;2.00;1.67;;;28.60;99.90;;;;;;5022118;23;20361;-78
2023/08/19 07:48:31;;;;;;;3.13;1.90;;;28.60;99.90;;;;;;4986411;28;20188;-78
2023/08/19 07:51:18;;;;;;;3.77;2.00;;;28.80;99.90;;;;;;4985511;28;20590;-78
2023/08/19 07:53:54;;;;;;;3.37;1.80;;;28.90;99.90;;;;;;4978999;28;20646;-78
2023/08/19 07:56:36;;;;;;;2.17;1.60;;;29.40;99.90;;;;;;4992163;28;20590;-78
2023/08/19 07:59:06;;;;;;;2.90;1.30;;;30.00;99.90;;;;;;4988350;28;20607;-77
2023/08/19 08:01:43;;;;;;;3.90;1.60;;;30.40;99.90;;;;;;4987837;28;20633;-78
2023/08/19 08:04:21;;;;;;;4.67;2.00;;;30.70;99.90;;;;;;4988799;28;20654;-78
2023/08/19 08:07:05;;;;;;;4.07;2.23;;;30.90;99.90;;;;;;4987756;28;20637;-78
2023/08/19 08:09:43;;;;;;;5.63;1.90;;;31.00;99.90;;;;;;4972515;28;20597;-78
2023/08/19 08:12:30;;;;;;;3.30;1.80;;;31.10;99.90;;;;;;4989227;28;20600;-78
2023/08/19 08:15:03;;;;;;;4.33;2.30;;;31.20;99.90;;;;;;4962998;28;20679;-79
2023/08/19 08:17:32;;;;;;;4.70;2.40;;;31.30;99.90;;;;;;4984873;28;20593;-79
2023/08/19 08:20:14;;;;;;;3.80;1.43;;;31.40;99.90;;;;;;4981656;28;20594;-79
2023/08/19 08:23:13;;;;;;;5.00;1.67;;;31.30;99.90;;;;;;4979900;28;20604;-78
2023/08/19 08:25:51;;;;;;;3.73;2.07;;;31.10;99.90;;;;;;4971077;28;20623;-79
2023/08/19 08:31:37;;;;;;;2.93;1.57;;;30.80;99.90;;;;;;4965831;28;20609;-78
2023/08/19 08:34:21;;;;;;;2.47;1.83;;;30.60;99.90;;;;;;4964081;28;20742;-78
2023/08/19 08:37:02;;;;;;;3.80;1.87;;;30.40;99.90;;;;;;4975223;28;20587;-77
2023/08/19 08:39:39;;;;;;;3.67;2.00;;;30.10;99.90;;;;;;4973876;28;20606;-77
2023/08/19 08:42:17;;;;;;;2.77;1.50;;;30.10;99.90;;;;;;4956448;28;20634;-78
2023/08/19 08:44:53;;;;;;;3.50;1.87;;;30.00;99.90;;;;;;4978436;28;20714;-78
2023/08/19 08:47:45;;;;;;;4.00;2.20;;;29.90;99.90;;;;;;4984401;28;20592;-78
2023/08/19 08:50:28;;;;;;;2.17;1.77;;;29.90;99.90;;;;;;4974257;28;20588;-79
2023/08/19 08:53:01;;;;;;;3.47;2.40;;;29.90;99.90;;;;;;4984267;28;20645;-79
2023/08/19 08:55:30;;;;;;;3.17;2.27;;;29.90;99.90;;;;;;4978724;28;20616;-78
2023/08/19 08:58:13;;;;;;;4.80;1.50;;;30.00;99.90;;;;;;4984525;28;20678;-78
2023/08/19 09:00:45;;;;;;;2.53;1.60;;;30.00;99.90;;;;;;4981944;28;20590;-79
2023/08/19 09:03:28;;;;;;;3.10;1.90;;;30.20;99.90;;;;;;4975068;28;20583;-78
2023/08/19 09:06:07;;;;;;;2.40;1.50;;;30.30;99.90;;;;;;4985924;28;20631;-79
2023/08/19 09:08:45;;;;;;;3.37;1.73;;;30.40;99.90;;;;;;4983138;28;20615;-79
2023/08/19 09:11:18;;;;;;;3.43;1.40;;;30.50;99.90;;;;;;4970135;28;20588;-78
2023/08/19 09:14:02;;;;;;;3.17;1.63;;;30.70;99.90;;;;;;4958080;28;20634;-79
2023/08/19 09:16:38;;;;;;;2.50;1.73;;;30.70;99.90;;;;;;4972110;28;20691;-80
2023/08/19 09:19:15;;;;;;;3.47;1.70;;;30.80;99.90;;;;;;4959120;28;20597;-80
2023/08/19 09:22:09;;;;;;;5.57;2.10;;;31.00;99.90;;;;;;4957984;28;20698;-80
2023/08/19 09:24:54;;;;;;;2.13;1.53;;;31.30;99.90;;;;;;4972837;28;20711;-80
2023/08/19 09:27:31;;;;;;;3.60;1.80;;;31.60;99.90;;;;;;4965903;28;20586;-79
2023/08/19 09:30:17;;;;;;;3.07;1.60;;;31.90;99.90;;;;;;4980440;28;20587;-78
2023/08/19 09:32:45;;;;;;;2.87;1.47;;;32.40;99.90;;;;;;4969236;28;20580;-79
2023/08/19 09:35:16;;;;;;;5.90;1.83;;;32.90;99.90;;;;;;4958176;28;20611;-79
2023/08/19 09:37:42;;;;;;;2.83;1.80;;;33.30;99.90;;;;;;4921033;29;20584;-79
2023/08/19 09:40:11;;;;;;;3.93;1.70;;;33.80;99.90;;;;;;4954065;28;20580;-79
2023/08/19 09:42:38;;;;;;;3.20;1.83;;;34.00;99.90;;;;;;4955641;28;20579;-78
2023/08/19 09:45:05;;;;;;;3.73;1.73;;;34.20;99.90;;;;;;4977086;28;20630;-79
2023/08/19 09:47:47;;;;;;;4.70;2.50;;;34.40;99.90;;;;;;4963158;28;20945;-79
2023/08/19 09:50:17;;;;;;;3.90;2.10;;;34.50;99.90;;;;;;4965495;28;20574;-79
2023/08/19 09:52:57;;;;;;;7.13;1.70;;;34.50;99.90;;;;;;4976143;28;20580;-78
2023/08/19 09:55:44;;;;;;;4.07;2.30;;;34.50;99.90;;;;;;4969595;28;20604;-79
2023/08/19 09:58:24;;;;;;;5.00;1.87;;;34.50;99.90;;;;;;4986276;28;20631;-78
2023/08/19 10:00:56;;;;;;;8.07;1.87;;;34.60;99.80;;;;;;4980491;28;20590;-77
2023/08/19 10:03:34;;;;;;;6.93;2.70;;;34.70;99.90;;;;;;4973641;28;20683;-77
2023/08/19 10:06:04;;;;;;;3.87;2.70;;;35.10;99.90;;;;;;4982318;28;20607;-77
2023/08/19 10:08:34;;;;;;;4.13;2.63;;;35.60;99.90;;;;;;4983268;28;20638;-78
2023/08/19 10:11:02;;;;;;;7.20;2.63;;;36.30;99.90;;;;;;4987707;28;20610;-77
2023/08/19 10:13:30;;;;;;;2.57;1.83;;;36.60;98.30;;;;;;4982892;28;20639;-78
2023/08/19 10:15:58;;;;;;;4.43;2.07;;;37.00;97.90;;;;;;4988623;28;20683;-77
2023/08/19 10:18:35;;;;;;;3.93;1.80;;;37.40;96.90;;;;;;4992049;28;21026;-77
2023/08/19 10:21:12;;;;;;;4.77;2.20;;;37.70;96.30;;;;;;4980342;28;20611;-77
2023/08/19 10:25:00;;;;;;;3.77;2.57;;;37.90;95.00;;;;;;4975570;28;20603;-77
2023/08/19 10:27:35;;;;;;;2.70;2.43;;;38.00;94.30;;;;;;4991281;28;20609;-78
2023/08/19 10:30:35;;;;;;;2.70;1.70;;;38.30;93.60;;;;;;4967817;28;20657;-77
2023/08/19 10:33:47;;;;;;;3.27;2.00;;;38.80;93.90;;;;;;4967844;28;20651;-79
2023/08/19 10:36:19;;;;;;;2.43;1.40;;;39.60;93.30;;;;;;4963371;28;20599;-77
2023/08/19 10:39:01;;;;;;;3.43;2.30;;;40.40;92.50;;;;;;4962185;28;20595;-78
2023/08/19 10:41:33;;;;;;;4.03;2.07;;;41.20;91.10;;;;;;4958069;28;20937;-78
2023/08/19 10:44:00;;;;;;;2.83;2.10;;;42.00;90.20;;;;;;4963883;28;20599;-77
2023/08/19 10:46:49;;;;;;;2.57;1.73;;;42.60;88.40;;;;;;4964415;28;20689;-79
2023/08/19 10:49:19;;;;;;;3.23;1.90;;;43.10;84.90;;;;;;4981596;28;20593;-78
2023/08/19 10:51:53;;;;;;;3.50;1.50;;;43.50;81.90;;;;;;4987691;28;20595;-74
2023/08/19 10:54:43;;;;;;;7.00;1.80;;;43.90;79.70;;;;;;4971311;28;20654;-74
2023/08/19 10:57:23;;;;;;;3.80;2.07;;;44.20;78.50;;;;;;4981018;28;20681;-75
2023/08/19 10:59:56;;;;;;;2.73;1.77;;;44.40;74.20;;;;;;4981438;28;20674;-75
2023/08/19 11:02:23;;;;;;;3.13;2.10;;;44.60;71.10;;;;;;4973179;28;20653;-75
2023/08/19 11:04:50;;;;;;;5.73;2.10;;;44.50;68.70;;;;;;4973270;28;20637;-75
2023/08/19 11:07:16;;;;;;;3.23;1.93;;;44.30;66.90;;;;;;4969989;28;20739;-75
2023/08/19 11:09:44;;;;;;;2.90;1.67;;;43.90;64.60;;;;;;4968941;28;20591;-75
2023/08/19 11:12:11;;;;;;;3.20;2.33;;;43.50;63.40;;;;;;4962616;28;20587;-75
2023/08/19 11:14:38;;;;;;;3.60;2.27;;;43.00;62.80;;;;;;4966269;28;20656;-75
2023/08/19 11:17:04;;;;;;;3.00;1.87;;;42.50;62.80;;;;;;4973822;28;20596;-75
2023/08/19 11:19:31;;;;;;;5.03;2.50;;;42.00;62.30;;;;;;4965868;28;20596;-76
2023/08/19 11:21:57;;;;;;;4.63;2.57;;;41.40;61.90;;;;;;4980844;28;20548;-75
2023/08/19 11:24:36;;;;;;;5.77;2.70;;;40.70;61.50;;;;;;4972653;28;20681;-75
2023/08/19 11:27:02;;;;;;;3.03;2.33;;;40.20;62.10;;;;;;4978745;28;20660;-75
2023/08/19 11:29:28;;;;;;;5.77;3.10;;;39.60;62.60;;;;;;4966527;28;20735;-75
2023/08/19 11:31:56;;;;;;;3.77;1.97;;;39.10;63.20;;;;;;4966324;28;21032;-76
2023/08/19 11:34:25;;;;;;;3.50;2.63;;;38.60;64.10;;;;;;4973461;28;20712;-75
2023/08/19 11:36:51;;;;;;;2.93;2.63;;;38.20;64.60;;;;;;4965637;28;20587;-75
2023/08/19 11:39:17;;;;;;;5.60;2.80;;;37.80;65.30;;;;;;4948983;29;20588;-76
2023/08/19 11:41:45;;;;;;;5.40;2.87;;;37.50;66.20;;;;;;4977515;28;20210;-76
2023/08/19 11:44:11;;;;;;;4.03;2.90;;;37.10;66.70;;;;;;4975996;28;20634;-76
2023/08/19 11:46:37;;;;;;;4.37;3.30;;;36.80;67.30;;;;;;4983115;28;20621;-75
2023/08/19 11:49:08;;;;;;;4.03;2.53;;;36.60;68.00;;;;;;4969775;28;20766;-75
2023/08/19 11:51:38;;;;;;;3.43;3.03;;;36.30;68.80;;;;;;4972520;28;20184;-75
2023/08/19 11:54:07;;;;;;;5.87;3.40;;;36.10;69.70;;;;;;4966626;28;20734;-75
2023/08/19 11:56:56;;;;;;;3.37;3.03;;;35.90;70.40;;;;;;4977141;28;21237;-75
2023/08/19 11:59:37;;;;;;;4.60;2.93;;;35.70;71.40;;;;;;4953219;28;20603;-75
2023/08/19 12:02:06;;;;;;;5.47;4.20;;;35.60;72.30;;;;;;4973565;28;20649;-75
2023/08/19 12:04:47;;;;;;;7.10;3.43;;;35.70;73.80;;;;;;4975648;28;20720;-78
2023/08/19 12:07:12;;;;;;;3.90;3.20;;;35.70;74.40;;;;;;4967643;28;20606;-77
2023/08/19 12:09:40;;;;;;;4.50;3.17;;;35.90;75.30;;;;;;4972438;28;20595;-77
2023/08/19 12:12:10;;;;;;;5.53;3.17;;;36.10;77.20;;;;;;4974000;28;20184;-76
2023/08/19 12:14:39;;;;;;;5.07;3.37;;;36.30;78.30;;;;;;4972545;28;20653;-77
2023/08/19 12:17:07;;;;;;;3.73;3.30;;;36.60;79.30;;;;;;4974263;28;20583;-77
2023/08/19 12:19:33;;;;;;;4.20;3.80;;;36.90;78.80;;;;;;4955085;28;20587;-77
2023/08/19 12:21:58;;;;;;;4.20;3.80;;;37.10;78.60;;;;;;4967042;28;20678;-77
2023/08/19 12:24:24;;;;;;;4.53;3.43;;;37.20;77.90;;;;;;4973277;28;21154;-77
2023/08/19 12:26:50;;;;;;;4.30;3.17;;;37.30;78.20;;;;;;4954736;28;20580;-77
2023/08/19 12:29:15;;;;;;;4.07;3.40;;;37.50;78.40;;;;;;4954167;29;20237;-78
2023/08/19 12:31:41;;;;;;;4.90;4.10;;;37.60;78.20;;;;;;4991367;28;20187;-77
2023/08/19 12:34:07;;;;;;;5.07;4.13;;;37.50;77.00;;;;;;4992228;28;20210;-78
2023/08/19 12:36:33;;;;;;;5.33;4.60;;;37.40;76.50;;;;;;4992638;28;20230;-77
2023/08/19 12:39:00;;;;;;;6.90;4.07;;;37.20;76.40;;;;;;4976118;28;20204;-78
2023/08/19 12:41:25;;;;;;;7.80;3.90;;;37.00;76.50;;;;;;4953379;29;20650;-77
2023/08/19 12:43:52;;;;;;;7.40;4.30;;;36.60;76.50;;;;;;4958379;28;20211;-78
2023/08/19 12:46:20;;;;;;;4.40;4.00;;;36.30;77.10;;;;;;4969763;28;20267;-77
2023/08/19 12:48:46;;;;;;;5.30;4.30;;;36.00;77.80;;;;;;4976782;28;20591;-78
2023/08/19 12:51:12;;;;;;;5.20;4.50;;;35.70;78.80;;;;;;4976060;28;20595;-77
2023/08/19 12:53:38;;;;;;;5.13;4.40;;;35.50;79.30;;;;;;4977365;28;20729;-77
2023/08/19 12:56:04;;;;;;;5.10;4.60;;;35.30;79.90;;;;;;4962289;28;20192;-76
2023/08/19 12:58:29;;;;;;;7.27;5.57;;;35.00;80.50;;;;;;4971839;28;20211;-76
2023/08/19 13:00:55;;;;;;;5.47;4.97;;;34.70;81.20;;;;;;4971482;28;20211;-76
2023/08/19 13:03:21;;;;;;;6.30;4.50;;;34.40;81.70;;;;;;4973369;28;20228;-76
2023/08/19 13:05:47;;;;;;;5.77;5.20;;;34.10;82.80;;;;;;4973251;28;20205;-76